Time;durP1;ratioP1;P1;durP2;ratioP2;P2;SDS_P1;SDS_P2;PMS_P1;PMS_P2;Temp;Humidity;BMP_temperature;BMP_pressure;BME280_temperature;BME280_humidity;BME280_pressure;Samples;Min_cycle;Max_cycle;Signal;HPM_P1;HPM_P2
2022/08/15 00:00:40;;;;;;;10.50;8.10;;;22.50;98.90;;;;;;5048088;28;20052;-76
2022/08/15 00:03:21;;;;;;;8.55;7.45;;;22.50;99.00;;;;;;5047335;28;20044;-76
2022/08/15 00:05:47;;;;;;;10.20;7.70;;;22.50;99.10;;;;;;5044925;28;20044;-76
2022/08/15 00:08:13;;;;;;;9.15;7.68;;;22.50;99.00;;;;;;5082043;28;20479;-76
2022/08/15 00:10:44;;;;;;;8.98;8.07;;;22.60;99.00;;;;;;5052027;28;20040;-76
2022/08/15 00:13:25;;;;;;;9.93;7.97;;;22.60;99.00;;;;;;5052301;28;20045;-76
2022/08/15 00:15:54;;;;;;;;;;;22.50;99.20;;;;;;5051212;28;20048;-76
2022/08/15 00:18:21;;;;;;;8.50;7.43;;;22.60;99.40;;;;;;5060554;28;19928;-76
2022/08/15 00:20:47;;;;;;;8.85;7.55;;;22.50;99.10;;;;;;5049442;28;20036;-76
2022/08/15 00:23:14;;;;;;;10.15;8.02;;;22.50;99.00;;;;;;5052805;28;20040;-76
2022/08/15 00:25:44;;;;;;;12.15;8.40;;;22.50;99.00;;;;;;5051936;28;20049;-77
2022/08/15 00:28:10;;;;;;;8.40;7.50;;;22.50;99.10;;;;;;5052371;28;20059;-77
2022/08/15 00:30:38;;;;;;;10.80;7.88;;;22.50;99.10;;;;;;5067740;28;20051;-76
2022/08/15 00:33:06;;;;;;;9.35;7.80;;;22.50;99.30;;;;;;5049594;28;20052;-77
2022/08/15 00:35:39;;;;;;;8.88;7.65;;;22.50;99.40;;;;;;5053239;28;20452;-77
2022/08/15 00:41:39;;;;;;;8.90;7.97;;;22.50;99.50;;;;;;5029139;22;20458;-78
2022/08/15 00:43:22;;;;;;;11.00;8.50;;;22.40;99.60;;;;;;4998569;28;20045;-78
2022/08/15 00:45:48;;;;;;;9.93;7.53;;;22.40;99.60;;;;;;5037641;28;20050;-78
2022/08/15 00:50:58;;;;;;;9.70;7.95;;;22.40;99.70;;;;;;4983876;28;20402;-78
2022/08/15 00:53:25;;;;;;;9.23;7.95;;;22.40;99.80;;;;;;4976626;28;20034;-78
2022/08/15 00:55:51;;;;;;;10.48;7.68;;;22.40;99.90;;;;;;4977798;28;20406;-78
2022/08/15 00:58:17;;;;;;;9.57;7.28;;;22.40;99.90;;;;;;4992937;28;20092;-78
2022/08/15 01:00:46;;;;;;;9.05;8.05;;;22.40;99.90;;;;;;4989277;28;20042;-78
2022/08/15 01:03:22;;;;;;;8.50;7.57;;;22.40;99.90;;;;;;4977331;28;20133;-78
2022/08/15 01:05:50;;;;;;;11.02;8.43;;;22.40;99.90;;;;;;4973623;28;20796;-77
2022/08/15 01:08:17;;;;;;;8.90;7.60;;;22.40;99.90;;;;;;4980311;28;20498;-78
2022/08/15 01:10:44;;;;;;;8.50;7.50;;;22.40;99.90;;;;;;4978230;28;20047;-78
2022/08/15 01:13:10;;;;;;;9.15;7.88;;;22.40;99.90;;;;;;4980302;28;20060;-78
2022/08/15 01:15:36;;;;;;;11.85;7.70;;;22.50;99.90;;;;;;4982791;28;20133;-78
2022/08/15 01:18:02;;;;;;;9.48;7.95;;;22.40;99.90;;;;;;4980524;28;20054;-78
2022/08/15 01:20:31;;;;;;;9.65;7.60;;;22.50;99.90;;;;;;4988171;28;20472;-78
2022/08/15 01:23:21;;;;;;;10.75;8.38;;;22.50;99.90;;;;;;4983713;28;20050;-78
2022/08/15 01:25:57;;;;;;;11.48;8.38;;;22.50;99.90;;;;;;4972788;28;20092;-78
2022/08/15 01:28:34;;;;;;;8.82;7.65;;;22.40;99.90;;;;;;4996543;28;20047;-78
2022/08/15 01:31:17;;;;;;;11.23;7.80;;;22.40;99.90;;;;;;4989327;28;20049;-78
2022/08/15 01:33:51;;;;;;;8.65;7.72;;;22.40;99.90;;;;;;4975194;28;20043;-78
2022/08/15 01:36:18;;;;;;;10.20;7.65;;;22.40;99.90;;;;;;4985862;28;20046;-78
2022/08/15 01:38:51;;;;;;;9.18;7.72;;;22.40;99.90;;;;;;4996991;28;20046;-77
2022/08/15 01:41:38;;;;;;;8.60;7.22;;;22.40;99.90;;;;;;4988218;28;20504;-77
2022/08/15 01:44:31;;;;;;;10.35;7.68;;;22.40;99.90;;;;;;4972289;28;20054;-78
2022/08/15 01:47:25;;;;;;;10.23;7.97;;;22.40;99.90;;;;;;4986013;28;20104;-77
2022/08/15 01:50:07;;;;;;;9.50;7.35;;;22.40;99.90;;;;;;4983920;28;20053;-78
2022/08/15 01:52:50;;;;;;;;;;;22.40;99.90;;;;;;4980688;28;20061;-78
2022/08/15 01:55:18;;;;;;;13.05;8.45;;;22.40;99.90;;;;;;4982118;28;19918;-78
2022/08/15 01:57:44;;;;;;;8.98;7.75;;;22.40;99.90;;;;;;4974382;28;20047;-78
2022/08/15 02:00:11;;;;;;;9.70;7.88;;;22.40;99.90;;;;;;4973072;28;20056;-78
2022/08/15 02:02:37;;;;;;;9.60;8.13;;;22.50;99.90;;;;;;4984556;28;20514;-78
2022/08/15 02:05:05;;;;;;;7.93;6.97;;;22.30;99.90;;;;;;4988046;28;20073;-77
2022/08/15 02:07:31;;;;;;;10.35;7.82;;;22.30;99.90;;;;;;4972913;28;20049;-78
2022/08/15 02:09:57;;;;;;;9.45;7.30;;;22.30;99.90;;;;;;4984197;28;20039;-78
2022/08/15 02:12:33;;;;;;;9.18;7.55;;;22.30;99.90;;;;;;4973834;28;20074;-77
2022/08/15 02:15:01;;;;;;;9.38;7.70;;;22.30;99.90;;;;;;4987113;28;20052;-78
2022/08/15 02:17:27;;;;;;;9.80;6.97;;;22.30;99.90;;;;;;4973691;28;20130;-78
2022/08/15 02:19:52;;;;;;;9.48;7.53;;;22.20;99.90;;;;;;4968338;28;20157;-78
2022/08/15 02:22:22;;;;;;;9.55;7.45;;;22.20;99.90;;;;;;4988162;28;20084;-77
2022/08/15 02:24:48;;;;;;;10.07;7.53;;;22.20;99.90;;;;;;4973244;28;20118;-78
2022/08/15 02:27:14;;;;;;;11.65;7.60;;;22.20;99.90;;;;;;4964458;28;20042;-78
2022/08/15 02:29:41;;;;;;;9.00;7.50;;;22.10;99.90;;;;;;4985768;28;20174;-78
2022/08/15 02:32:16;;;;;;;8.57;7.53;;;22.10;99.90;;;;;;4979352;28;20095;-78
2022/08/15 02:34:45;;;;;;;8.80;7.82;;;22.10;99.90;;;;;;4983524;28;20138;-78
2022/08/15 02:37:18;;;;;;;9.48;7.82;;;22.10;99.90;;;;;;4972538;28;20095;-78
2022/08/15 02:39:47;;;;;;;11.35;8.25;;;22.10;99.90;;;;;;4970506;28;20050;-78
2022/08/15 02:42:15;;;;;;;9.75;8.02;;;22.10;99.90;;;;;;4977296;28;20133;-78
2022/08/15 02:44:41;;;;;;;8.57;7.60;;;22.00;99.90;;;;;;4983873;28;20451;-78
2022/08/15 02:47:08;;;;;;;10.88;8.18;;;22.00;99.90;;;;;;4972570;28;20078;-78
2022/08/15 02:49:34;;;;;;;8.35;7.47;;;22.00;99.90;;;;;;4972393;28;20038;-78
2022/08/15 02:52:00;;;;;;;10.02;7.40;;;22.00;99.90;;;;;;4979299;28;20088;-78
2022/08/15 02:54:27;;;;;;;9.18;8.18;;;22.00;99.90;;;;;;4972044;28;20051;-78
2022/08/15 02:56:54;;;;;;;8.93;7.50;;;21.90;99.90;;;;;;4985370;28;20053;-77
2022/08/15 02:59:21;;;;;;;10.13;7.57;;;21.90;99.90;;;;;;4988247;28;20439;-78
2022/08/15 03:01:46;;;;;;;8.75;7.78;;;21.80;99.90;;;;;;4985372;28;20038;-78
2022/08/15 03:04:16;;;;;;;10.13;8.77;;;21.80;99.90;;;;;;4994080;28;20096;-78
2022/08/15 03:06:43;;;;;;;9.75;8.13;;;21.80;99.90;;;;;;4981242;28;20944;-78
2022/08/15 03:09:11;;;;;;;9.68;8.18;;;21.70;99.90;;;;;;4975664;28;20060;-78
2022/08/15 03:11:42;;;;;;;8.88;7.80;;;21.70;99.90;;;;;;4974888;28;20050;-78
2022/08/15 03:14:10;;;;;;;9.75;8.45;;;21.70;99.90;;;;;;4974052;28;20129;-78
2022/08/15 03:16:42;;;;;;;8.70;7.68;;;21.70;99.90;;;;;;4970213;28;20053;-78
2022/08/15 03:19:12;;;;;;;9.82;7.93;;;21.60;99.90;;;;;;4979517;28;20122;-78
2022/08/15 03:21:43;;;;;;;9.60;8.05;;;21.60;99.90;;;;;;4979346;28;20039;-77
2022/08/15 03:24:09;;;;;;;9.43;8.15;;;21.60;99.90;;;;;;4986630;28;20244;-78
2022/08/15 03:26:36;;;;;;;9.02;7.85;;;21.60;99.90;;;;;;4982088;28;20479;-78
2022/08/15 03:29:03;;;;;;;9.27;7.78;;;21.60;99.90;;;;;;4980143;28;20527;-78
2022/08/15 03:31:29;;;;;;;8.93;8.02;;;21.60;99.90;;;;;;4973563;28;20046;-78
2022/08/15 03:33:55;;;;;;;9.18;7.95;;;21.60;99.90;;;;;;4985133;28;20520;-78
2022/08/15 03:36:22;;;;;;;9.60;7.78;;;21.50;99.90;;;;;;4988949;28;20046;-78
2022/08/15 03:38:47;;;;;;;11.20;8.10;;;21.50;99.90;;;;;;4975960;28;20107;-79
2022/08/15 03:41:14;;;;;;;13.10;7.75;;;21.50;99.90;;;;;;4989923;28;20031;-78
2022/08/15 03:43:42;;;;;;;10.27;7.72;;;21.50;99.90;;;;;;4979903;28;20039;-77
2022/08/15 03:46:11;;;;;;;9.57;7.70;;;21.50;99.90;;;;;;4980821;28;20049;-79
2022/08/15 03:48:40;;;;;;;8.80;7.60;;;21.50;99.90;;;;;;4979990;28;20521;-78
2022/08/15 03:51:08;;;;;;;9.25;7.70;;;21.50;99.90;;;;;;4984564;28;20046;-78
2022/08/15 03:53:43;;;;;;;10.98;8.10;;;21.40;99.90;;;;;;4983727;28;20557;-78
2022/08/15 03:56:09;;;;;;;8.90;7.70;;;21.40;99.90;;;;;;4981699;28;20398;-78
2022/08/15 03:58:36;;;;;;;9.93;7.75;;;21.40;99.90;;;;;;4975208;28;20127;-78
2022/08/15 04:01:04;;;;;;;10.88;8.40;;;21.40;99.90;;;;;;4981183;28;20054;-78
2022/08/15 04:03:30;;;;;;;10.70;7.95;;;21.40;99.90;;;;;;4974203;28;20049;-78
2022/08/15 04:05:58;;;;;;;12.50;8.25;;;21.40;99.90;;;;;;4978588;28;20045;-78
2022/08/15 04:08:27;;;;;;;11.25;7.78;;;21.40;99.90;;;;;;4974674;28;20547;-78
2022/08/15 04:10:53;;;;;;;10.40;7.40;;;21.40;99.90;;;;;;4968794;28;20107;-78
2022/08/15 04:13:24;;;;;;;14.73;8.13;;;21.30;99.90;;;;;;4990907;28;20500;-77
2022/08/15 04:15:51;;;;;;;9.40;7.67;;;21.40;99.90;;;;;;4987499;28;20146;-78
2022/08/15 04:18:17;;;;;;;9.10;7.68;;;21.30;99.90;;;;;;4970928;28;20290;-77
2022/08/15 04:20:43;;;;;;;9.10;7.80;;;21.30;99.90;;;;;;4981968;28;20073;-78
2022/08/15 04:23:09;;;;;;;10.55;7.75;;;21.30;99.90;;;;;;4970579;28;20034;-78
2022/08/15 04:25:38;;;;;;;9.48;7.85;;;21.30;99.90;;;;;;4976240;28;20129;-78
2022/08/15 04:28:05;;;;;;;11.23;7.60;;;21.30;99.90;;;;;;4983493;28;20405;-78
2022/08/15 04:30:37;;;;;;;9.63;7.18;;;21.30;99.90;;;;;;4972905;28;20034;-77
2022/08/15 04:33:26;;;;;;;;;;;21.30;99.90;;;;;;4985595;28;20099;-78
2022/08/15 04:36:11;;;;;;;8.75;7.35;;;21.30;99.90;;;;;;4979006;28;19918;-78
2022/08/15 04:38:39;;;;;;;9.60;7.55;;;21.30;99.90;;;;;;4930335;28;1452564;-78
2022/08/15 04:41:05;;;;;;;10.70;8.15;;;21.30;99.90;;;;;;4972202;28;20072;-78
2022/08/15 04:43:32;;;;;;;8.73;7.40;;;21.30;99.90;;;;;;4980498;28;20038;-78
2022/08/15 04:45:58;;;;;;;10.25;7.95;;;21.20;99.90;;;;;;4985470;28;20038;-78
2022/08/15 04:48:25;;;;;;;9.38;7.53;;;21.30;99.90;;;;;;4963216;28;20042;-79
2022/08/15 04:50:53;;;;;;;9.50;7.82;;;21.20;99.90;;;;;;4964287;28;20049;-78
2022/08/15 04:53:21;;;;;;;10.00;7.35;;;21.20;99.90;;;;;;4985071;28;20042;-79
2022/08/15 04:55:47;;;;;;;9.95;7.80;;;21.20;99.90;;;;;;4984943;28;20125;-78
2022/08/15 04:58:13;;;;;;;9.70;7.57;;;21.30;99.90;;;;;;4984313;28;20129;-78
2022/08/15 05:00:44;;;;;;;8.98;7.50;;;21.20;99.90;;;;;;4956847;28;20047;-79
2022/08/15 05:03:20;;;;;;;11.23;7.60;;;21.30;99.90;;;;;;4988310;28;20038;-79
2022/08/15 05:05:53;;;;;;;9.57;8.00;;;21.20;99.90;;;;;;4984751;28;20062;-75
2022/08/15 05:08:21;;;;;;;11.32;8.10;;;21.20;99.90;;;;;;4984171;28;20444;-80
2022/08/15 05:11:00;;;;;;;8.80;7.68;;;21.20;99.90;;;;;;4974411;28;20049;-80
2022/08/15 05:13:30;;;;;;;10.10;8.38;;;21.20;99.90;;;;;;4974337;28;20498;-80
2022/08/15 05:15:58;;;;;;;9.73;7.35;;;21.30;99.90;;;;;;4991266;28;20084;-80
2022/08/15 05:18:25;;;;;;;10.07;7.80;;;21.20;99.90;;;;;;4986572;28;20045;-77
2022/08/15 05:20:51;;;;;;;9.52;7.65;;;21.30;99.90;;;;;;4990797;28;20133;-77
2022/08/15 05:23:20;;;;;;;9.65;8.18;;;21.20;99.90;;;;;;4973276;28;20050;-77
2022/08/15 05:25:49;;;;;;;10.85;8.98;;;21.30;99.90;;;;;;4983901;28;20035;-77
2022/08/15 05:28:15;;;;;;;12.45;9.05;;;21.30;99.90;;;;;;4965480;28;20049;-77
2022/08/15 05:30:41;;;;;;;10.55;8.25;;;21.30;99.90;;;;;;4975966;28;20047;-76
2022/08/15 05:33:13;;;;;;;11.20;8.38;;;21.20;99.90;;;;;;4978246;28;20104;-77
2022/08/15 05:35:41;;;;;;;12.88;8.57;;;21.20;99.90;;;;;;4985780;28;20062;-77
2022/08/15 05:38:33;;;;;;;8.48;7.50;;;21.20;99.90;;;;;;4969033;28;20057;-78
2022/08/15 05:41:01;;;;;;;9.90;7.87;;;21.20;99.90;;;;;;4965857;28;20051;-79
2022/08/15 05:43:51;;;;;;;11.32;8.30;;;21.20;99.90;;;;;;4989154;28;20034;-79
2022/08/15 05:46:42;;;;;;;9.27;7.82;;;21.30;99.90;;;;;;4988655;28;20035;-79
2022/08/15 05:49:33;;;;;;;9.05;7.72;;;21.30;99.90;;;;;;4983587;28;20035;-78
2022/08/15 05:52:36;;;;;;;9.70;8.10;;;21.30;99.90;;;;;;4978477;28;20064;-78
2022/08/15 05:55:31;;;;;;;11.95;8.63;;;21.30;99.90;;;;;;5003416;28;20059;-78
2022/08/15 05:58:09;;;;;;;9.27;8.20;;;21.30;99.90;;;;;;4990681;28;20379;-78
2022/08/15 06:00:36;;;;;;;11.13;7.97;;;21.30;99.90;;;;;;4970501;28;20443;-78
2022/08/15 06:03:15;;;;;;;9.07;8.07;;;21.30;99.90;;;;;;4978553;28;20039;-77
2022/08/15 06:05:46;;;;;;;11.68;8.15;;;21.30;99.90;;;;;;4980176;28;20125;-78
2022/08/15 06:08:29;;;;;;;10.55;8.50;;;21.30;99.90;;;;;;4981884;28;20089;-77
2022/08/15 06:11:15;;;;;;;10.70;8.75;;;21.40;99.90;;;;;;4972470;28;20042;-77
2022/08/15 06:13:54;;;;;;;9.77;8.27;;;21.30;99.90;;;;;;4984313;28;20046;-78
2022/08/15 06:16:23;;;;;;;11.00;7.55;;;21.40;99.90;;;;;;4966489;28;20133;-78
2022/08/15 06:18:50;;;;;;;13.13;8.13;;;21.40;99.90;;;;;;4983402;28;20050;-78
2022/08/15 06:21:40;;;;;;;9.40;8.10;;;21.40;99.90;;;;;;4984624;28;20092;-79
2022/08/15 06:24:22;;;;;;;13.07;8.25;;;21.40;99.90;;;;;;4977469;28;21235;-78
2022/08/15 06:26:59;;;;;;;10.05;8.60;;;21.40;99.90;;;;;;4987855;28;20125;-78
2022/08/15 06:29:43;;;;;;;10.55;8.95;;;21.50;99.90;;;;;;4972302;28;20038;-79
2022/08/15 06:32:21;;;;;;;11.15;8.68;;;21.50;99.90;;;;;;4987342;28;20042;-78
2022/08/15 06:35:08;;;;;;;10.93;8.25;;;21.60;99.90;;;;;;4977250;28;20072;-78
2022/08/15 06:37:42;;;;;;;11.20;8.85;;;21.60;99.90;;;;;;4945610;28;20133;-79
2022/08/15 06:40:16;;;;;;;10.63;8.93;;;21.70;99.90;;;;;;4985999;28;20043;-79
2022/08/15 06:42:44;;;;;;;10.88;9.23;;;21.80;99.90;;;;;;5002109;28;20038;-79
2022/08/15 06:45:26;;;;;;;11.98;9.55;;;21.80;99.90;;;;;;4984615;28;20117;-79
2022/08/15 06:48:05;;;;;;;12.88;9.43;;;21.90;99.90;;;;;;4985565;28;20041;-79
2022/08/15 06:50:37;;;;;;;10.93;8.52;;;22.00;99.90;;;;;;4974572;28;20066;-80
2022/08/15 06:53:17;;;;;;;11.88;8.88;;;22.10;99.90;;;;;;4961705;28;20121;-79
2022/08/15 06:55:58;;;;;;;13.65;9.77;;;22.20;99.90;;;;;;4974761;28;20050;-79
2022/08/15 06:58:45;;;;;;;10.20;9.10;;;22.30;99.90;;;;;;4976492;28;20176;-79
2022/08/15 07:01:23;;;;;;;13.27;10.07;;;22.40;99.90;;;;;;4971509;28;20070;-79
2022/08/15 07:04:05;;;;;;;12.40;9.77;;;22.50;99.90;;;;;;4987683;28;20126;-78
2022/08/15 07:06:43;;;;;;;12.70;9.30;;;22.60;99.90;;;;;;4993397;28;20057;-79
2022/08/15 07:09:27;;;;;;;14.27;10.32;;;22.60;99.90;;;;;;4971373;28;20046;-78
2022/08/15 07:12:26;;;;;;;11.70;9.45;;;22.70;99.90;;;;;;4974188;28;20399;-79
2022/08/15 07:15:18;;;;;;;13.65;11.23;;;22.80;99.90;;;;;;4974642;28;20038;-78
2022/08/15 07:17:54;;;;;;;13.75;10.77;;;22.70;99.90;;;;;;5006351;28;20061;-78
2022/08/15 07:20:20;;;;;;;10.98;9.57;;;22.80;99.90;;;;;;5000839;28;20482;-79
2022/08/15 07:22:46;;;;;;;12.88;10.57;;;22.80;99.90;;;;;;4967561;28;20078;-80
2022/08/15 07:25:15;;;;;;;15.80;13.27;;;22.80;99.90;;;;;;4991262;28;20043;-81
2022/08/15 07:27:41;;;;;;;16.88;11.48;;;22.80;99.90;;;;;;4979682;28;20105;-79
2022/08/15 07:30:20;;;;;;;14.30;11.50;;;22.80;99.90;;;;;;4978359;28;20114;-79
2022/08/15 07:32:52;;;;;;;22.15;12.70;;;22.80;99.90;;;;;;4988360;28;20051;-79
2022/08/15 07:35:32;;;;;;;14.07;11.40;;;22.80;99.90;;;;;;4981470;28;20043;-80
2022/08/15 07:38:03;;;;;;;16.95;12.90;;;22.80;99.60;;;;;;4981839;28;20042;-80
2022/08/15 07:40:40;;;;;;;18.00;12.60;;;22.80;99.70;;;;;;4988804;28;20091;-80
2022/08/15 07:43:28;;;;;;;15.27;13.07;;;22.80;99.60;;;;;;4982144;28;20042;-78
2022/08/15 07:46:34;;;;;;;15.30;12.75;;;22.90;99.70;;;;;;4975771;28;20122;-79
2022/08/15 07:49:07;;;;;;;15.65;12.43;;;22.90;99.60;;;;;;4979355;28;20039;-78
2022/08/15 07:51:58;;;;;;;15.90;12.05;;;22.90;99.70;;;;;;4962610;28;20038;-79
2022/08/15 07:54:27;;;;;;;14.88;12.32;;;23.00;99.70;;;;;;5001033;28;20096;-79
2022/08/15 07:56:58;;;;;;;14.48;12.18;;;23.00;99.70;;;;;;4979453;28;20054;-79
2022/08/15 07:59:23;;;;;;;16.70;13.63;;;23.10;99.80;;;;;;4986893;28;20492;-79
2022/08/15 08:02:02;;;;;;;15.20;12.30;;;23.10;99.80;;;;;;4965249;28;20039;-80
2022/08/15 08:04:29;;;;;;;18.02;13.60;;;23.20;99.60;;;;;;4973081;28;20047;-79
2022/08/15 08:07:20;;;;;;;13.60;11.95;;;23.30;99.60;;;;;;4957433;28;20517;-80
2022/08/15 08:09:53;;;;;;;17.75;13.32;;;23.30;99.70;;;;;;4973465;28;20045;-80
2022/08/15 08:12:43;;;;;;;16.73;13.88;;;23.40;99.60;;;;;;4973904;28;20405;-79
2022/08/15 08:15:20;;;;;;;16.10;13.82;;;23.40;99.40;;;;;;4972760;28;20043;-80
2022/08/15 08:17:59;;;;;;;16.70;13.95;;;23.40;99.30;;;;;;4974710;28;20493;-79
2022/08/15 08:20:34;;;;;;;15.40;13.60;;;23.50;99.30;;;;;;4965696;28;20030;-79
2022/08/15 08:23:33;;;;;;;17.58;14.55;;;23.50;99.50;;;;;;4993675;28;20039;-79
2022/08/15 08:26:05;;;;;;;16.30;13.15;;;23.60;99.50;;;;;;4972541;28;20042;-79
2022/08/15 08:28:49;;;;;;;;;;;23.70;99.50;;;;;;4978725;28;20046;-79
2022/08/15 08:31:21;;;;;;;17.27;14.55;;;23.70;99.20;;;;;;4980119;28;19968;-79
2022/08/15 08:34:17;;;;;;;16.60;14.70;;;23.70;99.60;;;;;;4968175;28;20047;-79
2022/08/15 08:36:55;;;;;;;18.83;15.15;;;23.90;99.40;;;;;;4970600;28;20063;-80
2022/08/15 08:39:53;;;;;;;15.85;13.93;;;24.00;99.40;;;;;;4975347;28;20035;-81
2022/08/15 08:42:44;;;;;;;17.58;13.52;;;24.10;99.00;;;;;;4974912;28;20605;-79
2022/08/15 08:45:32;;;;;;;18.03;15.27;;;24.30;99.20;;;;;;4992349;28;20041;-80
2022/08/15 08:48:05;;;;;;;18.48;14.13;;;24.60;99.10;;;;;;5000103;28;20043;-79
2022/08/15 08:50:43;;;;;;;15.60;12.73;;;24.80;98.70;;;;;;4977255;28;20050;-80
2022/08/15 08:53:37;;;;;;;15.75;13.75;;;25.00;98.60;;;;;;4978232;28;20042;-80
2022/08/15 08:56:27;;;;;;;14.00;12.57;;;25.30;98.60;;;;;;4938656;28;20546;-79
2022/08/15 08:59:16;;;;;;;15.60;12.70;;;25.50;98.10;;;;;;4985201;28;20046;-79
2022/08/15 09:01:44;;;;;;;15.63;13.48;;;25.60;97.30;;;;;;5000489;28;20533;-79
2022/08/15 09:04:22;;;;;;;14.52;13.02;;;25.50;97.40;;;;;;4975696;28;20042;-79
2022/08/15 09:06:49;;;;;;;15.90;12.68;;;25.40;97.10;;;;;;4978164;28;20096;-79
2022/08/15 09:09:27;;;;;;;15.88;14.20;;;25.30;97.10;;;;;;5020768;28;20073;-79
2022/08/15 09:14:51;;;;;;;15.50;13.50;;;25.20;97.00;;;;;;4977277;28;20551;-79
2022/08/15 09:17:19;;;;;;;19.30;14.18;;;25.00;96.90;;;;;;4973591;28;20043;-81
2022/08/15 09:19:51;;;;;;;17.42;13.80;;;25.00;96.90;;;;;;4983552;28;20054;-80
2022/08/15 09:22:18;;;;;;;17.58;13.73;;;24.90;96.90;;;;;;4980385;28;20412;-79
2022/08/15 09:24:44;;;;;;;15.00;13.38;;;24.80;96.90;;;;;;4961034;28;20046;-79
2022/08/15 09:27:15;;;;;;;19.52;13.77;;;24.70;96.80;;;;;;4988598;28;20037;-80
2022/08/15 09:29:46;;;;;;;17.27;14.98;;;24.60;96.80;;;;;;4982628;28;20042;-79
2022/08/15 09:32:27;;;;;;;18.98;14.80;;;24.60;96.80;;;;;;4990040;28;20045;-80
2022/08/15 09:35:10;;;;;;;18.38;15.57;;;24.50;97.00;;;;;;4965349;28;20078;-80
2022/08/15 09:37:47;;;;;;;22.80;15.43;;;24.40;97.30;;;;;;4988189;28;20042;-81
2022/08/15 09:40:41;;;;;;;19.33;15.80;;;24.20;97.20;;;;;;5001347;28;20039;-80
2022/08/15 09:43:13;;;;;;;21.00;15.82;;;24.10;97.50;;;;;;4985851;28;20517;-78
2022/08/15 09:46:00;;;;;;;;;;;24.00;98.20;;;;;;4987049;28;20023;-78
2022/08/15 09:49:07;;;;;;;17.15;14.75;;;23.90;99.80;;;;;;4984740;28;19922;-79
2022/08/15 09:52:01;;;;;;;16.98;13.82;;;23.80;99.70;;;;;;4942730;28;20093;-79
2022/08/15 09:54:30;;;;;;;19.38;14.55;;;23.70;99.90;;;;;;4986439;28;20038;-78
2022/08/15 09:57:17;;;;;;;19.55;14.55;;;23.60;99.90;;;;;;4984972;28;20493;-79
2022/08/15 09:59:43;;;;;;;16.80;13.77;;;23.50;99.90;;;;;;4981755;28;20047;-78
2022/08/15 10:02:15;;;;;;;20.05;14.00;;;23.50;99.90;;;;;;4974713;28;20092;-79
2022/08/15 10:05:01;;;;;;;;;;;23.50;99.90;;;;;;4988483;28;20043;-79
2022/08/15 10:07:32;;;;;;;19.98;14.93;;;23.40;99.90;;;;;;4988890;28;19917;-78
2022/08/15 10:09:58;;;;;;;;;;;23.40;99.90;;;;;;4972743;28;20536;-79
2022/08/15 10:12:24;;;;;;;18.20;15.07;;;23.30;99.90;;;;;;4988817;28;19969;-79
2022/08/15 10:14:52;;;;;;;20.73;15.27;;;23.30;99.90;;;;;;4971831;28;20126;-79
2022/08/15 10:17:34;;;;;;;17.38;14.98;;;23.40;99.90;;;;;;4980389;28;20042;-80
2022/08/15 10:20:22;;;;;;;18.15;15.85;;;23.50;99.90;;;;;;4979309;28;20053;-80
2022/08/15 10:23:10;;;;;;;19.13;15.73;;;23.60;99.90;;;;;;5013372;28;20062;-77
2022/08/15 10:25:46;;;;;;;21.92;16.75;;;23.70;99.90;;;;;;4971324;28;20109;-80
2022/08/15 10:28:11;;;;;;;19.73;16.85;;;23.70;99.90;;;;;;4973041;28;20437;-79
2022/08/15 10:30:48;;;;;;;19.83;15.82;;;23.70;99.90;;;;;;4999088;28;20038;-79
2022/08/15 10:33:42;;;;;;;19.45;15.82;;;23.80;99.90;;;;;;4971949;28;20049;-80
2022/08/15 10:36:14;;;;;;;21.05;18.48;;;23.80;99.90;;;;;;4985315;28;20039;-80
2022/08/15 10:38:52;;;;;;;;;;;24.00;99.90;;;;;;4970950;28;20068;-79
2022/08/15 10:42:02;;;;;;;22.27;17.08;;;24.10;99.90;;;;;;4983281;28;19921;-80
2022/08/15 10:45:01;;;;;;;20.67;17.45;;;24.30;99.90;;;;;;4967445;28;20563;-80
2022/08/15 10:47:27;;;;;;;19.70;17.00;;;24.40;99.90;;;;;;4970770;28;20049;-80
2022/08/15 10:50:15;;;;;;;20.58;17.00;;;24.40;99.90;;;;;;4967821;28;20043;-80
2022/08/15 10:53:18;;;;;;;18.63;16.38;;;24.50;99.90;;;;;;4984676;28;20054;-79
2022/08/15 10:55:43;;;;;;;;;;;24.40;99.90;;;;;;4971547;28;20082;-79
2022/08/15 10:58:32;;;;;;;19.25;15.60;;;24.40;99.90;;;;;;4972942;28;19965;-80
2022/08/15 11:01:12;;;;;;;23.88;18.27;;;24.30;99.90;;;;;;4976191;28;20054;-79
2022/08/15 11:03:53;;;;;;;19.63;17.00;;;24.40;99.90;;;;;;4978590;28;20030;-79
2022/08/15 11:06:21;;;;;;;19.87;17.77;;;24.40;99.90;;;;;;4979436;28;20474;-79
2022/08/15 11:08:54;;;;;;;20.02;16.08;;;24.40;99.90;;;;;;4977212;28;20273;-80
2022/08/15 11:11:24;;;;;;;18.98;16.95;;;24.50;99.90;;;;;;4978026;28;20038;-80
2022/08/15 11:13:56;;;;;;;19.20;16.67;;;24.60;99.90;;;;;;4983082;28;20072;-80
2022/08/15 11:16:38;;;;;;;24.83;19.88;;;24.70;99.90;;;;;;4987278;28;20379;-79
2022/08/15 11:19:37;;;;;;;20.00;16.58;;;24.70;99.90;;;;;;4963355;28;20047;-80
2022/08/15 11:22:07;;;;;;;19.08;17.08;;;24.70;99.90;;;;;;4964973;28;20133;-80
2022/08/15 11:24:39;;;;;;;19.50;17.42;;;24.70;99.90;;;;;;4976654;28;20039;-79
2022/08/15 11:27:13;;;;;;;20.27;17.52;;;24.70;99.90;;;;;;4981373;28;20039;-80
2022/08/15 11:29:39;;;;;;;21.63;19.33;;;24.80;99.90;;;;;;4972418;28;20049;-79
2022/08/15 11:32:06;;;;;;;23.02;18.20;;;24.90;99.90;;;;;;4982396;28;21308;-79
2022/08/15 11:34:38;;;;;;;21.08;18.85;;;24.90;99.90;;;;;;4984255;28;20498;-80
2022/08/15 11:37:28;;;;;;;20.55;17.00;;;25.00;99.90;;;;;;4979780;28;20071;-80
2022/08/15 11:40:05;;;;;;;18.55;16.63;;;25.00;99.90;;;;;;4976108;28;20057;-80
2022/08/15 11:42:36;;;;;;;20.90;18.58;;;25.10;99.90;;;;;;4987003;28;20098;-78
2022/08/15 11:45:24;;;;;;;17.67;15.13;;;25.20;99.90;;;;;;4981313;28;20042;-80
2022/08/15 11:47:53;;;;;;;21.67;18.13;;;25.30;99.90;;;;;;4975293;28;20196;-80
2022/08/15 11:50:25;;;;;;;19.23;17.15;;;25.40;99.90;;;;;;4983999;28;20496;-79
2022/08/15 11:52:55;;;;;;;15.10;13.48;;;25.50;99.90;;;;;;4986923;28;20038;-80
2022/08/15 11:55:27;;;;;;;14.55;11.85;;;25.60;99.90;;;;;;4983671;28;20409;-79
2022/08/15 11:58:02;;;;;;;12.10;10.85;;;25.60;99.90;;;;;;4993289;28;20045;-81
2022/08/15 12:00:38;;;;;;;13.93;12.18;;;25.60;99.90;;;;;;4981396;28;20049;-79
2022/08/15 12:03:35;;;;;;;15.63;11.32;;;25.80;99.90;;;;;;4986049;28;20038;-80
2022/08/15 12:06:13;;;;;;;16.63;10.43;;;25.90;99.90;;;;;;4970969;28;20045;-80
2022/08/15 12:08:42;;;;;;;11.88;10.60;;;26.00;99.90;;;;;;4980640;28;20071;-80
2022/08/15 12:11:24;;;;;;;11.98;9.27;;;26.20;99.90;;;;;;4992956;28;20129;-80
2022/08/15 12:14:00;;;;;;;11.82;10.27;;;26.30;99.80;;;;;;4982060;28;20054;-80
2022/08/15 12:16:33;;;;;;;11.00;9.73;;;26.40;99.30;;;;;;5018383;28;20096;-80
2022/08/15 12:19:29;;;;;;;10.73;8.93;;;26.50;98.90;;;;;;4996703;28;20047;-81
2022/08/15 12:22:00;;;;;;;10.13;7.75;;;26.50;97.70;;;;;;4977372;28;20042;-79
2022/08/15 12:24:29;;;;;;;11.00;7.65;;;26.50;98.00;;;;;;4990736;28;20046;-79
2022/08/15 12:27:01;;;;;;;11.13;7.35;;;26.50;97.50;;;;;;5006593;28;20024;-78
2022/08/15 12:29:31;;;;;;;9.40;6.82;;;26.40;96.80;;;;;;5008774;28;20039;-80
2022/08/15 12:31:59;;;;;;;9.45;6.82;;;26.50;96.70;;;;;;4983984;28;20149;-80
2022/08/15 12:34:27;;;;;;;8.60;6.93;;;26.70;96.50;;;;;;4987262;28;20055;-80
2022/08/15 12:36:53;;;;;;;8.27;6.82;;;26.80;96.30;;;;;;4985335;28;20050;-80
2022/08/15 12:39:20;;;;;;;10.10;7.10;;;26.80;95.60;;;;;;5030530;28;20048;-80
2022/08/15 12:41:49;;;;;;;6.45;5.63;;;26.80;95.40;;;;;;5005732;28;20129;-80
2022/08/15 12:44:27;;;;;;;7.20;6.05;;;26.80;95.10;;;;;;4976986;28;20076;-80
2022/08/15 12:46:55;;;;;;;7.88;6.28;;;26.90;94.60;;;;;;4980531;28;20047;-79
2022/08/15 12:49:21;;;;;;;9.05;6.97;;;26.90;94.40;;;;;;4957317;28;20042;-79
2022/08/15 12:51:47;;;;;;;8.77;7.20;;;26.90;93.80;;;;;;4980318;28;20039;-79
2022/08/15 12:54:13;;;;;;;8.30;6.90;;;26.80;93.70;;;;;;4975965;28;20038;-79
2022/08/15 12:56:40;;;;;;;8.63;6.68;;;26.80;93.40;;;;;;4969700;28;20074;-80
2022/08/15 12:59:06;;;;;;;10.25;7.38;;;26.80;93.20;;;;;;4978140;28;20053;-80
2022/08/15 13:01:36;;;;;;;8.75;6.55;;;26.80;93.10;;;;;;4972484;28;20047;-79
2022/08/15 13:04:06;;;;;;;9.45;6.10;;;26.70;92.90;;;;;;4966476;28;20716;-79
2022/08/15 13:06:36;;;;;;;8.80;7.30;;;26.80;93.00;;;;;;4978607;28;20054;-78
2022/08/15 13:09:07;;;;;;;9.45;6.60;;;26.80;92.70;;;;;;4974137;28;20096;-79
2022/08/15 13:11:36;;;;;;;7.38;6.50;;;26.80;92.40;;;;;;4970922;28;20471;-78
2022/08/15 13:14:02;;;;;;;7.00;6.03;;;26.70;92.20;;;;;;4979771;28;20374;-79
2022/08/15 13:16:30;;;;;;;7.45;5.40;;;26.70;92.10;;;;;;4972928;28;20038;-79
2022/08/15 13:18:57;;;;;;;8.30;5.75;;;26.70;91.90;;;;;;4980271;28;20133;-80
2022/08/15 13:24:07;;;;;;;8.90;5.43;;;26.70;91.70;;;;;;4986153;28;20057;-79
2022/08/15 13:26:38;;;;;;;9.02;6.30;;;26.70;91.60;;;;;;4973990;28;20030;-79